Time;durP1;ratioP1;P1;durP2;ratioP2;P2;SDS_P1;SDS_P2;PMS_P1;PMS_P2;Temp;Humidity;BMP_temperature;BMP_pressure;BME280_temperature;BME280_humidity;BME280_pressure;Samples;Min_cycle;Max_cycle;Signal;HPM_P1;HPM_P2
2023/08/01 00:01:28;;;;;;;0.00;0.00;;;16.70;99.90;;;;;;5036366;28;20045;-72
2023/08/01 00:03:54;;;;;;;0.57;0.57;;;16.70;99.90;;;;;;5038945;28;20140;-73
2023/08/01 00:06:20;;;;;;;0.35;0.35;;;16.70;99.90;;;;;;5036264;28;20536;-72
2023/08/01 00:08:46;;;;;;;0.30;0.30;;;16.70;99.90;;;;;;5043745;28;20507;-72
2023/08/01 00:11:14;;;;;;;0.00;0.00;;;16.60;99.90;;;;;;5046819;28;20048;-72
2023/08/01 00:13:39;;;;;;;0.00;0.00;;;16.60;99.90;;;;;;5037489;28;20048;-72
2023/08/01 00:16:05;;;;;;;0.40;0.40;;;16.50;99.90;;;;;;5036308;28;20050;-72
2023/08/01 00:18:31;;;;;;;0.00;0.00;;;16.50;99.90;;;;;;5041341;28;20041;-72
2023/08/01 00:20:56;;;;;;;0.00;0.00;;;16.40;99.90;;;;;;5038313;28;20049;-72
2023/08/01 00:23:22;;;;;;;0.10;0.10;;;16.40;99.90;;;;;;5033623;28;20503;-72
2023/08/01 00:25:51;;;;;;;0.45;0.22;;;16.40;99.90;;;;;;5040061;28;20056;-72
2023/08/01 00:28:22;;;;;;;0.08;0.08;;;16.30;99.90;;;;;;5024085;28;20099;-72
2023/08/01 00:30:48;;;;;;;0.00;0.00;;;16.30;99.90;;;;;;5040748;28;20467;-73
2023/08/01 00:33:14;;;;;;;0.65;0.22;;;16.30;99.90;;;;;;5042626;28;20129;-72
2023/08/01 00:35:40;;;;;;;0.38;0.38;;;16.30;99.90;;;;;;5038161;28;20077;-72
2023/08/01 00:38:06;;;;;;;0.20;0.20;;;16.30;99.90;;;;;;5042620;28;20072;-72
2023/08/01 00:40:32;;;;;;;0.35;0.35;;;16.30;99.90;;;;;;5040678;28;20146;-72
2023/08/01 00:42:58;;;;;;;0.00;0.00;;;16.30;99.90;;;;;;5025445;28;20041;-72
2023/08/01 00:45:25;;;;;;;0.00;0.00;;;16.20;99.90;;;;;;5024084;28;20045;-72
2023/08/01 00:47:52;;;;;;;0.05;0.05;;;16.20;99.90;;;;;;5034272;28;20514;-72
2023/08/01 00:50:20;;;;;;;0.00;0.00;;;16.10;99.90;;;;;;5042639;28;20044;-72
2023/08/01 00:52:50;;;;;;;0.17;0.17;;;16.10;99.90;;;;;;5043257;28;20045;-70
2023/08/01 00:55:16;;;;;;;0.00;0.00;;;16.10;99.90;;;;;;5038024;28;20444;-71
2023/08/01 00:57:42;;;;;;;0.10;0.10;;;16.10;99.90;;;;;;5034710;28;20146;-71
2023/08/01 01:00:08;;;;;;;0.00;0.00;;;16.00;99.90;;;;;;5033584;28;20083;-71
2023/08/01 01:02:35;;;;;;;0.08;0.08;;;16.00;99.90;;;;;;5045665;28;20037;-72
2023/08/01 01:05:02;;;;;;;0.00;0.00;;;16.00;99.90;;;;;;5039849;28;20378;-71
2023/08/01 01:07:29;;;;;;;0.03;0.03;;;16.00;99.90;;;;;;5039217;28;20076;-71
2023/08/01 01:09:55;;;;;;;0.00;0.00;;;16.00;99.90;;;;;;5029955;28;20041;-71
2023/08/01 01:12:20;;;;;;;0.45;0.45;;;16.00;99.90;;;;;;5046789;28;20403;-71
2023/08/01 01:14:46;;;;;;;1.80;1.65;;;16.00;99.90;;;;;;5016227;28;20054;-71
2023/08/01 01:17:12;;;;;;;0.60;0.35;;;15.90;99.90;;;;;;5043032;28;20391;-71
2023/08/01 01:19:38;;;;;;;2.70;0.65;;;15.90;99.90;;;;;;5041882;28;20037;-71
2023/08/01 01:22:09;;;;;;;0.00;0.00;;;15.80;99.90;;;;;;5042974;28;20041;-71
2023/08/01 01:24:35;;;;;;;0.10;0.10;;;15.80;99.90;;;;;;5037007;28;20041;-71
2023/08/01 01:27:03;;;;;;;0.00;0.00;;;15.80;99.90;;;;;;5045958;28;20049;-71
2023/08/01 01:29:30;;;;;;;0.00;0.00;;;15.80;99.90;;;;;;5041591;28;20044;-71
2023/08/01 01:31:57;;;;;;;0.20;0.20;;;15.80;99.90;;;;;;5037206;28;20086;-71
2023/08/01 01:34:23;;;;;;;0.00;0.00;;;15.80;99.90;;;;;;5038831;28;20180;-71
2023/08/01 01:36:49;;;;;;;0.10;0.10;;;15.80;99.90;;;;;;5045365;28;20157;-71
2023/08/01 01:39:14;;;;;;;0.05;0.05;;;15.70;99.90;;;;;;5047627;28;20571;-71
2023/08/01 01:41:40;;;;;;;0.10;0.10;;;15.70;99.90;;;;;;5042707;28;20037;-71
2023/08/01 01:44:05;;;;;;;0.00;0.00;;;15.70;99.90;;;;;;5028604;28;20130;-71
2023/08/01 01:46:31;;;;;;;0.10;0.10;;;15.70;99.90;;;;;;5048772;28;20049;-71
2023/08/01 01:48:58;;;;;;;2.47;1.25;;;15.60;99.90;;;;;;5026142;28;20072;-71
2023/08/01 01:51:26;;;;;;;0.10;0.10;;;15.60;99.90;;;;;;5038278;28;20508;-71
2023/08/01 01:53:51;;;;;;;0.20;0.20;;;15.60;99.90;;;;;;5040728;28;20446;-71
2023/08/01 01:56:17;;;;;;;2.25;2.05;;;15.60;99.90;;;;;;5048883;28;20053;-71
2023/08/01 01:58:43;;;;;;;0.00;0.00;;;15.60;99.90;;;;;;5046115;28;20467;-71
2023/08/01 02:01:08;;;;;;;0.00;0.00;;;15.70;99.90;;;;;;5042408;28;20580;-71
2023/08/01 02:03:34;;;;;;;0.13;0.13;;;15.70;99.90;;;;;;5042571;28;20495;-71
2023/08/01 02:05:59;;;;;;;0.00;0.00;;;15.70;99.90;;;;;;5043534;28;20080;-70
2023/08/01 02:08:25;;;;;;;0.03;0.03;;;15.70;99.90;;;;;;5037207;28;20041;-72
2023/08/01 02:10:51;;;;;;;0.28;0.28;;;15.80;99.90;;;;;;5041654;28;20063;-73
2023/08/01 02:13:16;;;;;;;0.00;0.00;;;15.80;99.90;;;;;;5047315;28;20124;-74
2023/08/01 02:15:42;;;;;;;0.00;0.00;;;15.70;99.90;;;;;;5043367;28;20091;-75
2023/08/01 02:18:07;;;;;;;0.00;0.00;;;15.70;99.90;;;;;;5048167;28;20107;-74
2023/08/01 02:20:33;;;;;;;0.10;0.10;;;15.70;99.90;;;;;;5044761;28;20492;-73
2023/08/01 02:22:58;;;;;;;0.10;0.10;;;15.70;99.90;;;;;;5039344;28;20049;-73
2023/08/01 02:25:24;;;;;;;0.98;0.98;;;15.80;99.90;;;;;;5038920;28;20045;-73
2023/08/01 02:27:50;;;;;;;0.00;0.00;;;15.70;99.90;;;;;;5041549;28;20037;-73
2023/08/01 02:30:15;;;;;;;0.30;0.22;;;15.80;99.90;;;;;;5045200;28;20103;-73
2023/08/01 02:32:42;;;;;;;4.50;0.32;;;15.80;99.90;;;;;;5038763;28;20480;-73
2023/08/01 02:35:07;;;;;;;0.10;0.10;;;15.80;99.90;;;;;;5042037;28;20049;-73
2023/08/01 02:37:33;;;;;;;0.13;0.13;;;15.80;99.90;;;;;;5042042;28;20111;-73
2023/08/01 02:39:59;;;;;;;0.00;0.00;;;15.80;99.90;;;;;;5026533;28;20462;-73
2023/08/01 02:42:24;;;;;;;0.20;0.20;;;15.90;99.90;;;;;;5038844;28;20041;-73
2023/08/01 02:44:50;;;;;;;0.00;0.00;;;15.80;99.90;;;;;;5044079;28;20045;-73
2023/08/01 02:47:15;;;;;;;0.00;0.00;;;15.90;99.90;;;;;;5047446;28;20041;-72
2023/08/01 02:49:41;;;;;;;0.00;0.00;;;15.80;99.90;;;;;;5046188;28;20095;-73
2023/08/01 02:52:07;;;;;;;0.40;0.40;;;15.80;99.90;;;;;;5034290;28;20049;-73
2023/08/01 02:54:32;;;;;;;0.00;0.00;;;15.90;99.90;;;;;;5047873;28;20119;-73
2023/08/01 02:56:58;;;;;;;0.00;0.00;;;15.80;99.90;;;;;;5041284;28;20052;-73
2023/08/01 02:59:24;;;;;;;0.08;0.08;;;15.80;99.90;;;;;;5036347;28;20048;-72
2023/08/01 03:01:49;;;;;;;0.00;0.00;;;15.80;99.90;;;;;;5049644;28;20445;-72
2023/08/01 03:04:15;;;;;;;0.00;0.00;;;15.80;99.90;;;;;;5037978;28;20045;-72
2023/08/01 03:06:40;;;;;;;0.00;0.00;;;15.80;99.90;;;;;;5033364;28;20132;-72
2023/08/01 03:09:07;;;;;;;0.00;0.00;;;15.80;99.90;;;;;;5041096;28;20128;-72
2023/08/01 03:11:39;;;;;;;0.00;0.00;;;15.80;99.90;;;;;;5023915;28;20049;-73
2023/08/01 03:14:05;;;;;;;0.00;0.00;;;15.80;99.90;;;;;;5043609;28;20484;-73
2023/08/01 03:16:31;;;;;;;0.13;0.13;;;15.70;99.90;;;;;;5043729;28;20037;-73
2023/08/01 03:18:57;;;;;;;0.00;0.00;;;15.70;99.90;;;;;;5038991;28;20131;-73
2023/08/01 03:21:22;;;;;;;0.10;0.10;;;15.70;99.90;;;;;;5023914;28;20504;-72
2023/08/01 03:23:48;;;;;;;0.00;0.00;;;15.70;99.90;;;;;;5023761;28;20452;-72
2023/08/01 03:26:15;;;;;;;0.00;0.00;;;15.70;99.90;;;;;;5046021;28;20115;-72
2023/08/01 03:28:40;;;;;;;0.00;0.00;;;15.70;99.90;;;;;;5043791;28;20036;-72
2023/08/01 03:31:06;;;;;;;0.00;0.00;;;15.70;99.90;;;;;;5035796;28;20041;-72
2023/08/01 03:33:33;;;;;;;0.00;0.00;;;15.70;99.90;;;;;;5043373;28;20128;-72
2023/08/01 03:35:58;;;;;;;0.00;0.00;;;15.60;99.90;;;;;;5038073;28;20484;-72
2023/08/01 03:38:24;;;;;;;0.03;0.03;;;15.70;99.90;;;;;;5042113;28;20041;-72
2023/08/01 03:40:50;;;;;;;0.00;0.00;;;15.70;99.90;;;;;;5041943;28;20037;-71
2023/08/01 03:43:15;;;;;;;0.03;0.03;;;15.70;99.90;;;;;;5042201;28;20051;-72
2023/08/01 03:45:41;;;;;;;0.00;0.00;;;15.70;99.90;;;;;;5036200;28;20034;-72
2023/08/01 03:48:07;;;;;;;0.10;0.10;;;15.70;99.90;;;;;;5045062;28;20369;-72
2023/08/01 03:50:32;;;;;;;0.10;0.10;;;15.70;99.90;;;;;;5043618;28;21206;-72
2023/08/01 03:52:58;;;;;;;0.00;0.00;;;15.60;99.90;;;;;;5027103;28;20156;-72
2023/08/01 03:55:23;;;;;;;0.00;0.00;;;15.60;99.90;;;;;;5037671;28;20040;-72
2023/08/01 03:57:49;;;;;;;0.00;0.00;;;15.60;99.90;;;;;;5036847;28;20532;-72
2023/08/01 04:00:14;;;;;;;0.00;0.00;;;15.60;99.90;;;;;;5027062;28;20045;-72
2023/08/01 04:02:41;;;;;;;0.00;0.00;;;15.60;99.90;;;;;;5042933;28;20447;-72
2023/08/01 04:05:08;;;;;;;0.00;0.00;;;15.70;99.90;;;;;;5049550;28;20396;-72
2023/08/01 04:07:37;;;;;;;0.00;0.00;;;15.70;99.90;;;;;;5041329;28;20496;-72
2023/08/01 04:10:04;;;;;;;0.00;0.00;;;15.70;99.90;;;;;;5047444;28;20049;-72
2023/08/01 04:12:31;;;;;;;0.10;0.10;;;15.70;99.90;;;;;;5036908;28;20435;-72
2023/08/01 04:14:57;;;;;;;0.52;0.43;;;15.70;99.90;;;;;;5026232;28;20098;-72
2023/08/01 04:17:23;;;;;;;0.10;0.10;;;15.70;99.90;;;;;;5040707;28;20041;-72
2023/08/01 04:19:49;;;;;;;0.00;0.00;;;15.70;99.90;;;;;;5037531;28;20128;-72
2023/08/01 04:22:14;;;;;;;0.63;0.55;;;15.70;99.90;;;;;;5040567;28;20164;-72
2023/08/01 04:24:40;;;;;;;3.38;1.10;;;15.70;99.90;;;;;;5038820;28;20045;-72
2023/08/01 04:27:05;;;;;;;0.00;0.00;;;15.70;99.90;;;;;;5038677;28;20073;-72
2023/08/01 04:29:31;;;;;;;0.00;0.00;;;15.70;99.90;;;;;;5041278;28;20051;-72
2023/08/01 04:31:57;;;;;;;0.00;0.00;;;15.80;99.90;;;;;;5041195;28;20439;-72
2023/08/01 04:34:24;;;;;;;0.17;0.17;;;15.80;99.90;;;;;;5038395;28;20041;-72
2023/08/01 04:36:49;;;;;;;0.00;0.00;;;15.80;99.90;;;;;;5024124;28;20044;-72
2023/08/01 04:39:15;;;;;;;0.00;0.00;;;15.80;99.90;;;;;;5026052;28;20061;-72
2023/08/01 04:41:40;;;;;;;0.10;0.10;;;15.80;99.90;;;;;;5036334;28;20075;-72
2023/08/01 04:44:06;;;;;;;19.50;1.10;;;15.80;99.90;;;;;;5045118;28;20128;-72
2023/08/01 04:46:32;;;;;;;0.00;0.00;;;15.80;99.90;;;;;;5042832;28;20053;-72
2023/08/01 04:48:58;;;;;;;0.00;0.00;;;15.80;99.90;;;;;;5038224;28;20059;-72
2023/08/01 04:51:24;;;;;;;1.05;1.02;;;15.70;99.90;;;;;;5042308;28;20496;-72
2023/08/01 04:53:50;;;;;;;0.00;0.00;;;15.80;99.90;;;;;;5037485;28;20128;-72
2023/08/01 04:56:16;;;;;;;0.00;0.00;;;15.70;99.90;;;;;;5039343;28;20041;-72
2023/08/01 04:58:42;;;;;;;0.80;0.80;;;15.80;99.90;;;;;;5043960;28;20095;-72
2023/08/01 05:01:07;;;;;;;0.00;0.00;;;15.80;99.90;;;;;;5038998;28;20068;-72
2023/08/01 05:03:33;;;;;;;0.10;0.10;;;15.80;99.90;;;;;;5042145;28;20051;-73
2023/08/01 05:05:59;;;;;;;1.20;0.22;;;15.90;99.90;;;;;;5051541;28;20052;-72
2023/08/01 05:08:24;;;;;;;0.00;0.00;;;15.90;99.90;;;;;;5047927;28;20594;-72
2023/08/01 05:10:50;;;;;;;0.00;0.00;;;15.90;99.90;;;;;;5039734;28;20036;-72
2023/08/01 05:13:16;;;;;;;0.10;0.10;;;15.80;99.90;;;;;;5049352;28;20156;-72
2023/08/01 05:15:47;;;;;;;0.05;0.03;;;15.90;99.90;;;;;;5030425;28;20045;-73
2023/08/01 05:18:13;;;;;;;0.13;0.13;;;15.90;99.90;;;;;;5029711;28;20129;-72
2023/08/01 05:20:39;;;;;;;0.00;0.00;;;15.90;99.90;;;;;;5046170;28;20037;-72
2023/08/01 05:23:04;;;;;;;0.00;0.00;;;15.80;99.90;;;;;;5044303;28;20033;-72
2023/08/01 05:25:30;;;;;;;0.22;0.22;;;15.80;99.90;;;;;;5038248;28;20041;-73
2023/08/01 05:27:56;;;;;;;0.10;0.10;;;15.80;99.90;;;;;;5035376;28;20091;-72
2023/08/01 05:30:21;;;;;;;0.25;0.20;;;15.70;99.90;;;;;;5046436;28;20467;-73
2023/08/01 05:32:47;;;;;;;0.20;0.20;;;15.70;99.90;;;;;;5042482;28;20094;-72
2023/08/01 05:35:12;;;;;;;0.00;0.00;;;15.70;99.90;;;;;;5044166;28;20170;-73
2023/08/01 05:37:38;;;;;;;0.00;0.00;;;15.70;99.90;;;;;;5040792;28;20813;-72
2023/08/01 05:40:04;;;;;;;0.10;0.10;;;15.70;99.90;;;;;;5047552;28;20045;-72
2023/08/01 05:42:30;;;;;;;0.00;0.00;;;15.70;99.90;;;;;;5049043;28;20050;-72
2023/08/01 05:44:56;;;;;;;0.00;0.00;;;15.60;99.90;;;;;;5047863;28;20064;-72
2023/08/01 05:47:22;;;;;;;0.00;0.00;;;15.60;99.90;;;;;;5043009;28;20045;-72
2023/08/01 05:49:48;;;;;;;0.00;0.00;;;15.60;99.90;;;;;;5039363;28;20052;-72
2023/08/01 05:52:14;;;;;;;0.20;0.20;;;15.60;99.90;;;;;;5042629;28;20054;-71
2023/08/01 05:54:39;;;;;;;0.00;0.00;;;15.60;99.90;;;;;;5033667;28;20053;-71
2023/08/01 05:57:06;;;;;;;0.13;0.13;;;15.70;99.90;;;;;;5048903;28;20048;-71
2023/08/01 05:59:31;;;;;;;0.00;0.00;;;15.70;99.90;;;;;;5042735;28;20045;-71
2023/08/01 06:01:57;;;;;;;0.03;0.03;;;15.70;99.90;;;;;;5044115;28;20044;-71
2023/08/01 06:04:23;;;;;;;0.00;0.00;;;15.80;99.90;;;;;;5039355;28;20045;-71
2023/08/01 06:06:48;;;;;;;0.10;0.10;;;15.80;99.90;;;;;;5037083;28;20048;-72
2023/08/01 06:09:14;;;;;;;0.00;0.00;;;15.90;99.90;;;;;;5045283;28;20053;-72
2023/08/01 06:11:40;;;;;;;0.00;0.00;;;15.90;99.90;;;;;;5025011;28;20045;-72
2023/08/01 06:14:05;;;;;;;0.00;0.00;;;15.80;99.90;;;;;;5038283;28;20051;-72
2023/08/01 06:16:31;;;;;;;0.00;0.00;;;15.90;99.90;;;;;;5050140;28;20126;-71
2023/08/01 06:18:58;;;;;;;0.15;0.15;;;15.80;99.90;;;;;;5034096;28;20041;-71
2023/08/01 06:21:23;;;;;;;0.05;0.05;;;15.80;99.90;;;;;;5042751;28;20033;-71
2023/08/01 06:23:49;;;;;;;0.00;0.00;;;15.80;99.90;;;;;;5045721;28;20766;-71
2023/08/01 06:26:17;;;;;;;2.65;1.08;;;15.80;99.90;;;;;;5048215;28;20378;-71
2023/08/01 06:28:43;;;;;;;0.00;0.00;;;15.80;99.90;;;;;;5037224;28;20056;-71
2023/08/01 06:31:08;;;;;;;0.38;0.38;;;15.80;99.90;;;;;;5040729;28;20057;-71
2023/08/01 06:33:34;;;;;;;0.00;0.00;;;15.80;99.90;;;;;;5031636;28;20040;-71
2023/08/01 06:36:00;;;;;;;0.10;0.10;;;15.80;99.90;;;;;;5026059;28;20048;-72
2023/08/01 06:38:25;;;;;;;0.00;0.00;;;15.80;99.90;;;;;;5037622;28;20611;-72
2023/08/01 06:40:51;;;;;;;2.20;1.17;;;15.80;99.90;;;;;;5043232;28;20044;-72
2023/08/01 06:43:16;;;;;;;0.52;0.52;;;15.80;99.90;;;;;;5037619;28;20134;-72
2023/08/01 06:45:42;;;;;;;0.00;0.00;;;15.80;99.90;;;;;;5045820;28;20037;-72
2023/08/01 06:48:08;;;;;;;0.00;0.00;;;15.80;99.90;;;;;;5025192;28;20060;-71
2023/08/01 06:50:34;;;;;;;0.00;0.00;;;15.80;99.90;;;;;;5038405;28;20053;-73
2023/08/01 06:53:00;;;;;;;0.00;0.00;;;15.80;99.90;;;;;;5051087;28;20106;-73
2023/08/01 06:55:26;;;;;;;0.00;0.00;;;15.80;99.90;;;;;;5021741;28;20041;-73
2023/08/01 06:57:52;;;;;;;0.00;0.00;;;15.80;99.90;;;;;;5026762;28;20473;-71
2023/08/01 07:00:18;;;;;;;0.00;0.00;;;15.90;99.90;;;;;;5022740;28;20111;-71
2023/08/01 07:02:43;;;;;;;0.00;0.00;;;15.90;99.90;;;;;;5026309;28;20029;-71
2023/08/01 07:05:09;;;;;;;0.00;0.00;;;16.00;99.90;;;;;;5038503;28;20106;-71
2023/08/01 07:07:35;;;;;;;0.00;0.00;;;16.10;99.90;;;;;;5043500;28;20044;-71
2023/08/01 07:10:00;;;;;;;0.00;0.00;;;16.20;99.90;;;;;;5023152;28;20114;-71
2023/08/01 07:12:26;;;;;;;0.00;0.00;;;16.30;99.90;;;;;;5049928;28;20043;-71
2023/08/01 07:14:51;;;;;;;2.17;1.38;;;16.30;99.90;;;;;;5049661;28;20080;-69
2023/08/01 07:17:17;;;;;;;1.08;0.63;;;16.30;99.90;;;;;;5037850;28;20044;-70
2023/08/01 07:19:43;;;;;;;0.00;0.00;;;16.30;99.90;;;;;;5026897;28;20033;-71
2023/08/01 07:22:09;;;;;;;0.35;0.35;;;16.30;99.90;;;;;;5050274;28;20040;-71
2023/08/01 07:24:34;;;;;;;0.10;0.10;;;16.30;99.90;;;;;;5042380;28;20487;-71
2023/08/01 07:27:00;;;;;;;0.00;0.00;;;16.20;99.90;;;;;;5037535;28;20044;-72
2023/08/01 07:29:26;;;;;;;0.00;0.00;;;16.20;99.90;;;;;;5021059;28;20489;-71
2023/08/01 07:31:51;;;;;;;0.20;0.20;;;16.10;99.90;;;;;;5035816;28;20464;-70
2023/08/01 07:34:17;;;;;;;0.00;0.00;;;16.00;99.90;;;;;;5041811;28;20041;-69
2023/08/01 07:36:43;;;;;;;0.00;0.00;;;16.00;99.90;;;;;;5037607;28;20041;-69
2023/08/01 07:39:08;;;;;;;0.00;0.00;;;16.00;99.90;;;;;;5035018;28;20046;-69
2023/08/01 07:41:34;;;;;;;0.00;0.00;;;15.90;99.90;;;;;;5040507;28;20166;-71
2023/08/01 07:44:03;;;;;;;0.00;0.00;;;15.90;99.90;;;;;;5032822;28;20120;-70
2023/08/01 07:46:28;;;;;;;0.00;0.00;;;15.90;99.90;;;;;;5026313;28;20048;-71
2023/08/01 07:48:54;;;;;;;0.00;0.00;;;16.00;99.90;;;;;;5042676;28;20037;-72
2023/08/01 07:51:20;;;;;;;0.00;0.00;;;15.90;99.90;;;;;;5023114;28;20150;-72
2023/08/01 07:53:45;;;;;;;0.00;0.00;;;15.90;99.90;;;;;;5036125;28;20413;-71
2023/08/01 07:56:11;;;;;;;0.00;0.00;;;15.90;99.90;;;;;;5037072;28;20112;-67
2023/08/01 07:58:37;;;;;;;0.10;0.10;;;16.10;99.90;;;;;;5033745;28;20707;-68
2023/08/01 08:01:06;;;;;;;0.20;0.20;;;16.20;99.90;;;;;;5039000;28;20044;-70
2023/08/01 08:03:32;;;;;;;0.00;0.00;;;16.30;99.90;;;;;;5038081;28;20505;-71
2023/08/01 08:05:58;;;;;;;0.00;0.00;;;16.30;99.90;;;;;;5025264;28;20152;-70
2023/08/01 08:08:23;;;;;;;0.32;0.32;;;16.30;99.90;;;;;;5044980;28;20056;-70
2023/08/01 08:10:49;;;;;;;0.45;0.40;;;16.40;99.90;;;;;;5020263;28;20043;-71
2023/08/01 08:13:15;;;;;;;0.08;0.08;;;16.60;99.90;;;;;;5044619;28;20090;-70
2023/08/01 08:15:41;;;;;;;0.00;0.00;;;16.70;99.90;;;;;;5031269;28;20038;-70
2023/08/01 08:18:07;;;;;;;0.00;0.00;;;16.70;99.90;;;;;;5044753;28;20049;-71
2023/08/01 08:20:42;;;;;;;0.00;0.00;;;16.70;99.90;;;;;;5019866;28;20044;-71
2023/08/01 08:23:08;;;;;;;0.20;0.20;;;16.60;99.90;;;;;;5039203;28;20033;-70
2023/08/01 08:25:34;;;;;;;0.10;0.10;;;16.60;99.90;;;;;;5038024;28;20847;-71
2023/08/01 08:27:59;;;;;;;0.00;0.00;;;16.60;99.90;;;;;;5039382;28;20078;-70
2023/08/01 08:30:25;;;;;;;1.33;0.98;;;16.60;99.90;;;;;;5033189;28;20427;-71
2023/08/01 08:32:50;;;;;;;0.00;0.00;;;16.70;99.90;;;;;;5046362;28;20511;-70
2023/08/01 08:35:16;;;;;;;0.00;0.00;;;16.80;99.90;;;;;;5037884;28;20042;-71
2023/08/01 08:37:42;;;;;;;0.00;0.00;;;17.00;99.90;;;;;;5042028;28;20404;-71
2023/08/01 08:40:08;;;;;;;0.00;0.00;;;17.20;99.90;;;;;;5047717;28;20052;-70
2023/08/01 08:42:37;;;;;;;0.00;0.00;;;17.40;99.90;;;;;;5042053;28;20052;-71
2023/08/01 08:45:04;;;;;;;0.00;0.00;;;17.50;99.90;;;;;;5039957;28;20060;-71
2023/08/01 08:47:34;;;;;;;0.13;0.10;;;17.60;99.90;;;;;;5036791;28;20075;-71
2023/08/01 08:50:00;;;;;;;2.70;0.43;;;17.60;99.90;;;;;;5042678;28;20044;-70
2023/08/01 08:52:26;;;;;;;0.00;0.00;;;17.50;99.90;;;;;;5036057;28;20487;-70
2023/08/01 08:54:52;;;;;;;0.20;0.20;;;17.50;99.90;;;;;;5047400;28;20075;-71
2023/08/01 08:57:20;;;;;;;0.45;0.45;;;17.60;99.90;;;;;;5039888;28;20376;-71
2023/08/01 08:59:47;;;;;;;0.00;0.00;;;17.80;99.90;;;;;;5033404;28;20122;-71
2023/08/01 09:02:15;;;;;;;0.00;0.00;;;17.80;99.90;;;;;;5041664;28;20151;-71
2023/08/01 09:04:40;;;;;;;0.00;0.00;;;17.70;99.90;;;;;;5049085;28;20064;-72
2023/08/01 09:07:11;;;;;;;0.00;0.00;;;17.80;99.90;;;;;;5042513;28;20049;-71
2023/08/01 09:09:37;;;;;;;0.00;0.00;;;17.70;99.90;;;;;;5041579;28;20054;-72
2023/08/01 09:12:03;;;;;;;0.47;0.47;;;17.70;99.90;;;;;;5046564;28;20048;-72
2023/08/01 09:14:29;;;;;;;1.65;1.55;;;17.60;99.90;;;;;;5048585;28;20107;-72
2023/08/01 09:16:55;;;;;;;0.00;0.00;;;17.50;99.90;;;;;;5048196;28;20053;-71
2023/08/01 09:19:23;;;;;;;0.00;0.00;;;17.50;99.90;;;;;;5033296;28;20041;-72
2023/08/01 09:21:50;;;;;;;0.00;0.00;;;17.60;99.90;;;;;;5042276;28;20072;-71
2023/08/01 09:24:20;;;;;;;0.00;0.00;;;17.70;99.90;;;;;;5036257;28;20050;-72
2023/08/01 09:26:47;;;;;;;0.22;0.22;;;17.70;99.90;;;;;;5047335;28;20584;-72
2023/08/01 09:29:13;;;;;;;0.35;0.35;;;17.70;99.90;;;;;;5030093;28;20424;-71
2023/08/01 09:31:41;;;;;;;0.65;0.65;;;17.70;99.90;;;;;;5025789;28;20037;-72
2023/08/01 09:34:22;;;;;;;0.20;0.20;;;17.70;99.90;;;;;;5047061;28;20677;-70
2023/08/01 09:36:48;;;;;;;0.05;0.05;;;17.80;99.90;;;;;;5035923;28;20045;-70
2023/08/01 09:39:19;;;;;;;0.20;0.20;;;17.90;99.90;;;;;;5042970;28;20054;-71
2023/08/01 09:41:46;;;;;;;0.00;0.00;;;17.90;99.90;;;;;;5033869;28;20052;-71
2023/08/01 09:44:15;;;;;;;0.20;0.20;;;18.00;99.90;;;;;;5039313;28;20052;-71
2023/08/01 09:46:42;;;;;;;0.10;0.10;;;18.40;99.90;;;;;;5044906;28;20049;-71
2023/08/01 09:49:12;;;;;;;0.00;0.00;;;18.40;99.90;;;;;;5045692;28;20077;-70
2023/08/01 09:51:50;;;;;;;0.00;0.00;;;18.60;99.90;;;;;;5035945;28;20417;-71
2023/08/01 09:54:17;;;;;;;0.35;0.35;;;19.20;99.90;;;;;;5038728;28;20053;-72
2023/08/01 09:56:48;;;;;;;3.38;1.45;;;19.50;99.90;;;;;;5049311;28;20048;-73
2023/08/01 09:59:23;;;;;;;0.15;0.15;;;19.40;99.90;;;;;;5026425;28;20060;-72
2023/08/01 10:01:50;;;;;;;2.15;1.60;;;19.10;99.90;;;;;;5042520;28;20700;-71
2023/08/01 10:04:33;;;;;;;0.20;0.20;;;19.50;99.90;;;;;;5027801;28;20057;-70
2023/08/01 10:07:26;;;;;;;0.30;0.30;;;19.80;99.90;;;;;;5046033;28;20037;-71
2023/08/01 10:09:55;;;;;;;0.20;0.20;;;20.20;99.90;;;;;;5040801;28;20056;-70
2023/08/01 10:12:23;;;;;;;6.45;1.13;;;20.10;99.90;;;;;;5041327;28;20083;-70
2023/08/01 10:14:49;;;;;;;0.00;0.00;;;19.80;99.90;;;;;;5022171;28;20144;-70
2023/08/01 10:17:16;;;;;;;0.00;0.00;;;19.80;99.90;;;;;;5041282;28;20552;-69
2023/08/01 10:19:42;;;;;;;0.90;0.20;;;19.50;99.90;;;;;;5040855;28;20037;-70
2023/08/01 10:22:09;;;;;;;0.43;0.38;;;19.70;99.90;;;;;;5037464;28;20080;-70
2023/08/01 10:24:36;;;;;;;0.38;0.38;;;20.00;99.90;;;;;;5042030;28;20071;-72
2023/08/01 10:27:18;;;;;;;0.15;0.15;;;20.20;99.90;;;;;;5024733;28;20091;-73
2023/08/01 10:29:44;;;;;;;0.00;0.00;;;20.30;99.90;;;;;;5037652;28;20045;-71
2023/08/01 10:32:10;;;;;;;0.00;0.00;;;20.50;99.90;;;;;;5022814;28;20057;-72
2023/08/01 10:34:36;;;;;;;0.00;0.00;;;20.80;99.90;;;;;;5041012;28;20053;-71
2023/08/01 10:37:02;;;;;;;0.00;0.00;;;20.50;99.90;;;;;;5036627;28;20042;-69
2023/08/01 10:39:28;;;;;;;0.00;0.00;;;20.10;99.90;;;;;;5045735;28;20061;-71
2023/08/01 10:42:01;;;;;;;0.10;0.10;;;19.80;99.90;;;;;;5036715;28;20083;-71
2023/08/01 10:44:30;;;;;;;0.00;0.00;;;20.10;99.90;;;;;;5040308;28;20056;-71
2023/08/01 10:46:58;;;;;;;0.43;0.43;;;20.20;99.90;;;;;;5040445;28;20048;-70
2023/08/01 10:49:37;;;;;;;0.00;0.00;;;20.20;99.90;;;;;;5037851;28;21410;-70
2023/08/01 10:52:15;;;;;;;0.00;0.00;;;20.10;99.90;;;;;;5043442;28;20781;-71
2023/08/01 10:54:41;;;;;;;0.85;0.85;;;19.90;99.90;;;;;;5038845;28;20037;-71
2023/08/01 10:57:08;;;;;;;1.35;0.55;;;19.70;99.90;;;;;;5040122;28;20055;-70
2023/08/01 10:59:34;;;;;;;0.00;0.00;;;19.70;99.90;;;;;;5033707;28;20057;-70
2023/08/01 11:02:01;;;;;;;0.10;0.10;;;19.70;99.90;;;;;;5038645;28;20116;-71
2023/08/01 11:04:27;;;;;;;0.98;0.75;;;19.50;99.90;;;;;;5049550;28;20055;-70
2023/08/01 11:06:56;;;;;;;0.00;0.00;;;19.40;99.90;;;;;;5040854;28;20510;-70
2023/08/01 11:09:24;;;;;;;0.00;0.00;;;19.30;99.90;;;;;;5044209;28;20041;-70
2023/08/01 11:11:56;;;;;;;0.30;0.30;;;19.20;99.90;;;;;;5039393;28;20040;-69
2023/08/01 11:14:22;;;;;;;0.00;0.00;;;19.30;99.90;;;;;;5032963;28;20431;-70
2023/08/01 11:16:49;;;;;;;0.00;0.00;;;19.40;99.90;;;;;;5045899;28;20495;-70
2023/08/01 11:19:19;;;;;;;0.00;0.00;;;19.50;99.90;;;;;;5036367;28;20061;-70
2023/08/01 11:21:44;;;;;;;1.77;1.02;;;19.40;99.90;;;;;;5048390;28;20376;-70
2023/08/01 11:24:10;;;;;;;0.38;0.38;;;19.40;99.90;;;;;;5027793;28;20045;-70
2023/08/01 11:26:39;;;;;;;0.10;0.10;;;19.30;99.90;;;;;;5045520;28;20400;-70
2023/08/01 11:29:05;;;;;;;0.00;0.00;;;19.40;99.90;;;;;;5031154;28;20129;-70
2023/08/01 11:31:31;;;;;;;1.55;0.63;;;19.80;99.90;;;;;;5046684;28;20033;-70
2023/08/01 11:33:58;;;;;;;1.55;0.63;;;20.00;99.90;;;;;;5041419;28;20079;-70
2023/08/01 11:36:27;;;;;;;0.17;0.08;;;20.40;99.90;;;;;;5040450;28;20546;-70
2023/08/01 11:38:54;;;;;;;2.17;1.00;;;20.60;99.90;;;;;;5031251;28;20041;-70
2023/08/01 11:41:19;;;;;;;0.00;0.00;;;20.90;99.90;;;;;;5038586;28;20033;-69
2023/08/01 11:43:45;;;;;;;2.72;1.20;;;20.80;99.90;;;;;;5049060;28;20037;-70
2023/08/01 11:46:13;;;;;;;0.00;0.00;;;20.70;99.90;;;;;;5029549;28;20041;-69
2023/08/01 11:48:39;;;;;;;0.00;0.00;;;20.30;99.90;;;;;;5026962;28;20068;-69
2023/08/01 11:51:04;;;;;;;0.10;0.10;;;20.10;99.90;;;;;;5037121;28;20061;-69
2023/08/01 11:53:32;;;;;;;0.00;0.00;;;20.10;99.90;;;;;;5027665;28;20055;-70
2023/08/01 11:55:58;;;;;;;0.00;0.00;;;20.10;99.90;;;;;;5046680;28;20077;-70
2023/08/01 11:58:30;;;;;;;0.00;0.00;;;20.00;99.90;;;;;;5033757;28;20429;-70
2023/08/01 12:01:07;;;;;;;0.00;0.00;;;20.20;99.90;;;;;;5017974;28;20041;-70
2023/08/01 12:03:43;;;;;;;0.00;0.00;;;20.70;99.90;;;;;;5041919;28;20388;-70
2023/08/01 12:06:11;;;;;;;0.00;0.00;;;20.60;99.90;;;;;;5033702;28;20053;-71
2023/08/01 12:08:38;;;;;;;0.00;0.00;;;20.30;99.90;;;;;;5035062;28;20060;-70
2023/08/01 12:11:03;;;;;;;0.00;0.00;;;20.10;99.90;;;;;;5026428;28;20053;-70
2023/08/01 12:13:30;;;;;;;0.00;0.00;;;19.90;99.90;;;;;;5034881;28;20071;-70
2023/08/01 12:15:57;;;;;;;0.10;0.10;;;19.90;99.90;;;;;;5039063;28;20071;-70
2023/08/01 12:18:27;;;;;;;1.08;0.85;;;20.50;99.90;;;;;;5025950;28;20049;-70
2023/08/01 12:20:53;;;;;;;0.00;0.00;;;20.50;99.90;;;;;;5045246;28;20491;-70
2023/08/01 12:23:19;;;;;;;0.08;0.08;;;20.30;99.90;;;;;;5044038;28;20033;-70
2023/08/01 12:25:46;;;;;;;0.00;0.00;;;20.00;99.90;;;;;;5031220;28;20395;-70
2023/08/01 12:28:13;;;;;;;0.20;0.20;;;19.90;99.90;;;;;;5035291;28;20073;-70
2023/08/01 12:30:41;;;;;;;0.00;0.00;;;19.80;99.90;;;;;;5046176;28;20052;-70
2023/08/01 12:33:07;;;;;;;0.30;0.30;;;19.70;99.90;;;;;;5040317;28;20129;-70
2023/08/01 12:35:33;;;;;;;0.00;0.00;;;19.70;99.90;;;;;;5027654;28;20049;-70
2023/08/01 12:37:59;;;;;;;0.45;0.45;;;19.70;99.90;;;;;;5021370;28;20389;-70
2023/08/01 12:40:24;;;;;;;0.00;0.00;;;19.50;99.90;;;;;;5024168;28;20045;-71
2023/08/01 12:42:50;;;;;;;0.10;0.10;;;19.90;99.90;;;;;;5041807;28;20095;-70
2023/08/01 12:45:16;;;;;;;0.00;0.00;;;20.30;99.90;;;;;;5045538;28;20404;-69